PAEI METAR and TAF weather

Enter ICAO airport designator
Station Type Date Time Source
PAEI METAR 2019/10/23 07:56 UTC NOAA

PAEI 230756Z AUTO 00000KT 10SM CLR M09/M11 A2986 RMK AO2 SLP124 T10891108 $


Station Type Date Time Source
PAEI Decoded METAR 2019/10/23 07:56 UTC NOAA

Fairbanks, Eielson Air Force Base, AK, United States (PAEI) 64-39N 147-06W 167M
Oct 23, 2019 - 03:56 AM EDT / 2019.10.23 0756 UTC
Wind: Calm:0
Visibility: 10 mile(s):0
Sky conditions: clear
Temperature: 16.0 F (-8.9 C)
Dew Point: 12.6 F (-10.8 C)
Relative Humidity: 86%
Pressure (altimeter): 29.86 in. Hg (1011 hPa)
ob: PAEI 230756Z AUTO 00000KT 10SM CLR M09/M11 A2986 RMK AO2 SLP124 T10891108
cycle: 8

Station Type Date Time Source
PAEI TAF 2019/10/23 04:04 UTC NOAA

TAF PAEI 230400Z 2304/2410 VRB04KT 9999 SKC QNH2984INS
BECMG 2316/2317 10008KT 9999 BKN085 WS020/12035KT 620852 QNH2938INS
BECMG 2321/2322 13010G25KT 9999 BKN075 620753 QNH2914INS
TEMPO 2322/2402 13020G32KT 520006 TX02/2400Z TNM08/2314Z

Example: see airport list